Time;durP1;ratioP1;P1;durP2;ratioP2;P2;SDS_P1;SDS_P2;PMS_P1;PMS_P2;Temp;Humidity;BMP_temperature;BMP_pressure;BME280_temperature;BME280_humidity;BME280_pressure;Samples;Min_cycle;Max_cycle;Signal;HPM_P1;HPM_P2
2022/03/23 00:05:43;;;;;;;13.85;7.78;;;8.40;90.10;;;;;;6755099;88;20191;-79
2022/03/23 00:15:45;;;;;;;19.77;8.90;;;8.50;90.60;;;;;;6746354;88;20219;-79
2022/03/23 00:25:46;;;;;;;18.08;8.77;;;8.00;92.30;;;;;;6733699;88;20201;-77
2022/03/23 00:35:48;;;;;;;16.37;8.70;;;7.90;92.70;;;;;;6742837;88;20295;-77
2022/03/23 00:45:48;;;;;;;17.70;8.18;;;7.60;94.40;;;;;;6745497;88;20851;-77
2022/03/23 00:55:49;;;;;;;18.40;9.15;;;7.40;95.70;;;;;;6749451;88;20199;-76
2022/03/23 01:05:51;;;;;;;16.23;9.02;;;7.20;97.40;;;;;;6747714;88;20264;-78
2022/03/23 01:15:52;;;;;;;17.35;8.63;;;6.70;99.90;;;;;;6747425;88;20252;-77
2022/03/23 01:25:53;;;;;;;17.12;8.25;;;6.50;99.90;;;;;;6750635;88;20223;-77
2022/03/23 01:35:54;;;;;;;15.45;8.82;;;6.50;99.90;;;;;;6739794;88;20233;-78
2022/03/23 01:45:55;;;;;;;15.55;8.18;;;6.40;99.90;;;;;;6746550;88;20180;-78
2022/03/23 01:55:56;;;;;;;20.50;8.80;;;6.50;99.90;;;;;;6746812;88;20210;-77
2022/03/23 02:05:56;;;;;;;16.30;8.65;;;6.40;99.90;;;;;;6745681;88;20300;-77
2022/03/23 02:15:58;;;;;;;21.67;8.57;;;6.00;99.90;;;;;;6754469;88;20873;-77
2022/03/23 02:26:02;;;;;;;16.27;8.43;;;5.90;99.90;;;;;;6757240;88;20595;-76
2022/03/23 02:36:03;;;;;;;16.92;8.48;;;5.80;99.90;;;;;;6739406;88;20213;-79
2022/03/23 02:46:05;;;;;;;19.30;8.82;;;6.00;99.90;;;;;;6735062;88;20986;-76
2022/03/23 03:06:25;;;;;;;18.02;8.90;;;5.60;99.90;;;;;;6738258;88;20165;-76
2022/03/23 03:16:26;;;;;;;20.98;8.60;;;5.60;99.90;;;;;;6751085;88;20278;-79
2022/03/23 03:37:29;;;;;;;16.77;8.82;;;5.40;99.90;;;;;;6751015;88;20202;-81
2022/03/23 03:47:29;;;;;;;17.02;8.65;;;5.40;99.90;;;;;;6749611;88;20196;-81
2022/03/23 03:57:30;;;;;;;17.73;8.45;;;5.70;99.90;;;;;;6750157;88;20220;-80
2022/03/23 04:07:34;;;;;;;18.02;9.00;;;5.70;99.90;;;;;;6750078;88;20192;-80
2022/03/23 04:17:34;;;;;;;17.60;9.63;;;5.60;99.90;;;;;;6749602;88;20199;-80
2022/03/23 04:27:44;;;;;;;16.25;8.43;;;5.60;99.90;;;;;;6750534;88;20685;-81
2022/03/23 04:37:45;;;;;;;15.02;8.20;;;5.60;99.90;;;;;;6750695;88;20559;-82
2022/03/23 04:47:46;;;;;;;16.90;8.52;;;5.40;99.90;;;;;;6750445;88;20227;-79
2022/03/23 04:57:47;;;;;;;22.13;8.95;;;5.30;99.90;;;;;;6749782;88;20910;-79
2022/03/23 05:07:47;;;;;;;16.17;8.23;;;5.20;99.90;;;;;;6749957;88;20201;-80
2022/03/23 05:17:48;;;;;;;15.68;9.10;;;5.00;99.90;;;;;;6748836;88;20200;-79
2022/03/23 05:27:48;;;;;;;17.33;9.18;;;4.90;99.90;;;;;;6749821;88;20790;-80
2022/03/23 05:37:49;;;;;;;20.48;8.90;;;4.90;99.90;;;;;;6749088;88;20207;-79
2022/03/23 05:47:52;;;;;;;15.75;8.80;;;4.60;99.90;;;;;;6749165;88;20180;-79
2022/03/23 05:57:55;;;;;;;16.35;8.90;;;4.50;99.90;;;;;;6735083;88;20235;-79
2022/03/23 06:07:55;;;;;;;22.60;9.65;;;4.50;99.90;;;;;;6734023;88;20210;-79
2022/03/23 06:17:56;;;;;;;19.60;9.82;;;4.20;99.90;;;;;;6733182;88;20193;-79
2022/03/23 06:27:56;;;;;;;20.70;10.43;;;4.50;99.90;;;;;;6731306;88;20316;-79
2022/03/23 06:37:57;;;;;;;18.58;9.45;;;4.60;99.90;;;;;;6730197;88;20565;-78
2022/03/23 06:47:58;;;;;;;18.58;9.85;;;4.80;99.90;;;;;;6733111;88;20204;-80
2022/03/23 06:57:58;;;;;;;18.93;9.77;;;5.40;99.90;;;;;;6728814;88;20613;-80
2022/03/23 07:18:18;;;;;;;19.35;10.15;;;6.40;99.90;;;;;;6734788;88;20201;-81
2022/03/23 07:28:19;;;;;;;22.67;9.68;;;7.20;99.90;;;;;;6728527;88;20720;-80
2022/03/23 07:38:19;;;;;;;21.70;10.30;;;7.80;99.90;;;;;;6723420;88;20193;-79
2022/03/23 07:48:22;;;;;;;22.00;10.90;;;8.50;99.90;;;;;;6728227;88;20947;-80
2022/03/23 07:58:23;;;;;;;19.65;11.48;;;8.90;99.90;;;;;;6727164;88;20526;-80
2022/03/23 08:08:23;;;;;;;21.60;11.05;;;9.40;99.90;;;;;;6726632;88;20193;-80
2022/03/23 08:18:25;;;;;;;23.35;11.30;;;10.00;99.90;;;;;;6725962;88;20220;-80
2022/03/23 08:28:26;;;;;;;22.45;11.52;;;10.80;98.70;;;;;;6726216;88;20661;-80
2022/03/23 08:38:26;;;;;;;22.08;11.55;;;11.40;96.60;;;;;;6726150;88;20240;-80
2022/03/23 08:48:27;;;;;;;22.37;12.15;;;11.90;95.50;;;;;;6721768;88;20359;-80
2022/03/23 08:58:27;;;;;;;20.02;11.48;;;12.40;93.80;;;;;;6725063;88;20351;-80
2022/03/23 09:08:28;;;;;;;21.95;12.30;;;13.30;92.20;;;;;;6726372;88;20275;-78
2022/03/23 09:18:28;;;;;;;24.92;12.82;;;13.60;91.40;;;;;;6722412;88;20692;-79
2022/03/23 09:39:31;;;;;;;25.02;12.73;;;15.80;91.10;;;;;;6742208;88;20314;-79
2022/03/23 09:49:32;;;;;;;22.02;12.63;;;17.20;86.80;;;;;;6737236;88;20188;-79
2022/03/23 09:59:33;;;;;;;20.92;12.55;;;18.30;82.30;;;;;;6737303;88;20979;-79
2022/03/23 10:09:52;;;;;;;22.50;12.60;;;19.10;79.20;;;;;;6737036;88;20238;-79
2022/03/23 10:19:53;;;;;;;21.20;12.60;;;20.10;75.10;;;;;;6744305;88;20221;-80
2022/03/23 10:29:54;;;;;;;20.65;13.07;;;20.80;70.30;;;;;;6744674;88;20334;-80
2022/03/23 10:39:57;;;;;;;20.10;12.60;;;21.80;66.50;;;;;;6732904;88;20319;-79
2022/03/23 10:50:11;;;;;;;21.83;12.60;;;22.40;63.20;;;;;;6726457;88;20346;-78
2022/03/23 11:00:18;;;;;;;20.40;12.63;;;22.40;61.50;;;;;;6726978;88;20185;-80
2022/03/23 11:20:43;;;;;;;17.55;11.10;;;23.80;56.30;;;;;;6726534;88;20184;-79
2022/03/23 11:30:45;;;;;;;21.08;10.77;;;24.60;52.80;;;;;;6726484;88;20186;-78
2022/03/23 11:40:48;;;;;;;15.85;10.55;;;25.00;51.00;;;;;;6726763;88;20188;-78
2022/03/23 11:51:08;;;;;;;15.63;10.32;;;25.50;50.10;;;;;;6727147;88;20178;-80
2022/03/23 12:01:12;;;;;;;22.33;11.30;;;26.00;49.50;;;;;;6727288;88;20617;-80
2022/03/23 12:11:34;;;;;;;16.95;10.32;;;25.50;49.40;;;;;;6726728;88;20209;-80
2022/03/23 12:22:05;;;;;;;15.48;9.23;;;25.90;48.20;;;;;;6725110;88;20194;-78
2022/03/23 12:32:08;;;;;;;16.58;9.45;;;26.40;47.70;;;;;;6720190;88;20209;-78
2022/03/23 12:42:12;;;;;;;15.60;9.85;;;26.40;47.00;;;;;;6721170;88;20200;-79
2022/03/23 13:02:36;;;;;;;16.23;8.23;;;25.10;46.40;;;;;;6724366;88;20222;-79
2022/03/23 13:12:40;;;;;;;15.20;7.62;;;25.50;46.30;;;;;;6725313;88;20330;-79
2022/03/23 13:22:41;;;;;;;15.68;8.50;;;25.40;47.20;;;;;;6728607;88;20201;-79
2022/03/23 13:32:48;;;;;;;17.05;9.88;;;25.10;46.80;;;;;;6730845;88;20928;-79
2022/03/23 13:53:08;;;;;;;22.23;11.48;;;24.90;48.40;;;;;;6723828;88;20229;-78
2022/03/23 14:03:08;;;;;;;16.87;10.43;;;25.00;48.70;;;;;;6725940;88;20781;-78
2022/03/23 14:13:11;;;;;;;19.62;11.45;;;25.00;47.90;;;;;;6721786;88;20196;-77
2022/03/23 14:23:12;;;;;;;20.83;11.73;;;24.90;47.50;;;;;;6725135;88;20350;-78
2022/03/23 14:33:18;;;;;;;22.42;13.00;;;24.80;48.20;;;;;;6723001;88;20231;-78
2022/03/23 14:43:39;;;;;;;23.77;12.93;;;24.40;48.70;;;;;;6718021;88;20951;-78
2022/03/23 14:53:40;;;;;;;22.27;12.40;;;24.50;47.80;;;;;;6721244;88;20648;-77
2022/03/23 15:03:41;;;;;;;26.85;13.13;;;24.30;48.30;;;;;;6723615;88;20221;-80
2022/03/23 15:13:41;;;;;;;26.67;13.37;;;24.10;48.30;;;;;;6726145;88;20248;-79
2022/03/23 15:33:46;;;;;;;22.20;11.97;;;23.80;47.70;;;;;;6752431;88;20254;-81
2022/03/23 15:43:49;;;;;;;23.40;10.98;;;23.30;48.40;;;;;;6751433;88;20440;-80
2022/03/23 15:53:50;;;;;;;19.50;10.65;;;23.20;48.10;;;;;;6751149;88;20185;-80
2022/03/23 16:03:50;;;;;;;22.48;11.15;;;22.10;49.60;;;;;;6752059;88;20258;-82
2022/03/23 16:13:54;;;;;;;23.23;11.98;;;21.70;49.60;;;;;;6748953;88;20180;-81
2022/03/23 16:23:55;;;;;;;24.00;12.55;;;21.10;51.10;;;;;;6747257;88;20256;-84
2022/03/23 16:33:56;;;;;;;20.75;11.75;;;21.30;50.90;;;;;;6749505;88;20201;-80
2022/03/23 16:43:57;;;;;;;20.25;11.57;;;21.10;51.10;;;;;;6749577;88;20275;-82
2022/03/23 16:53:57;;;;;;;23.30;11.80;;;20.70;51.60;;;;;;6857014;77;20717;-79
2022/03/23 17:14:17;;;;;;;22.15;11.38;;;19.80;53.00;;;;;;6754499;88;20202;-78
2022/03/23 17:24:17;;;;;;;19.65;10.55;;;19.40;53.90;;;;;;6749508;88;20197;-78
2022/03/23 17:34:18;;;;;;;19.40;10.52;;;18.90;54.40;;;;;;6746032;88;20238;-79
2022/03/23 17:44:20;;;;;;;18.95;10.55;;;18.40;55.30;;;;;;6747243;88;20354;-79
2022/03/23 17:54:20;;;;;;;18.58;11.55;;;18.10;56.00;;;;;;6754501;88;20742;-79
2022/03/23 18:04:22;;;;;;;24.67;12.55;;;17.60;56.80;;;;;;6755542;88;20289;-82
2022/03/23 18:14:23;;;;;;;22.30;12.65;;;17.10;58.20;;;;;;6761389;88;20198;-82
2022/03/23 18:24:23;;;;;;;21.87;11.20;;;16.80;59.50;;;;;;6751098;88;20228;-80
2022/03/23 18:34:24;;;;;;;19.40;10.73;;;16.20;59.70;;;;;;6749073;88;20277;-80
2022/03/23 18:44:25;;;;;;;18.52;10.60;;;16.00;61.10;;;;;;6750654;88;20237;-79
2022/03/23 18:54:27;;;;;;;27.48;14.80;;;15.70;62.90;;;;;;6770273;88;20191;-80
2022/03/23 19:04:28;;;;;;;25.48;13.40;;;15.40;63.70;;;;;;6766123;88;20180;-79
2022/03/23 19:14:28;;;;;;;32.28;16.30;;;15.00;65.10;;;;;;6750268;88;20208;-79
2022/03/23 19:24:29;;;;;;;25.58;13.88;;;14.60;66.20;;;;;;6755222;88;20189;-78
2022/03/23 19:34:29;;;;;;;24.02;12.70;;;14.30;67.30;;;;;;6747857;88;20683;-78
2022/03/23 19:44:31;;;;;;;26.50;12.23;;;14.10;68.20;;;;;;6761541;88;20164;-78
2022/03/23 19:54:33;;;;;;;30.75;15.50;;;13.80;68.90;;;;;;6763877;88;20188;-77
2022/03/23 20:04:34;;;;;;;24.70;13.30;;;13.90;69.00;;;;;;6751188;88;20206;-77
2022/03/23 20:14:34;;;;;;;24.15;12.43;;;13.40;69.50;;;;;;6751229;88;20719;-78
2022/03/23 20:24:35;;;;;;;24.33;12.37;;;13.00;70.20;;;;;;6746551;88;20193;-79
2022/03/23 20:34:36;;;;;;;24.02;12.15;;;12.80;69.60;;;;;;6744766;88;20200;-80
2022/03/23 20:44:37;;;;;;;24.73;11.52;;;12.60;72.20;;;;;;6754138;88;20191;-81
2022/03/23 20:54:37;;;;;;;22.87;12.75;;;12.40;72.40;;;;;;6756011;88;20196;-81
2022/03/23 21:04:38;;;;;;;34.38;14.80;;;12.20;74.90;;;;;;6749700;88;21167;-80
2022/03/23 21:14:39;;;;;;;24.50;12.73;;;12.00;75.00;;;;;;6749609;88;20199;-80
2022/03/23 21:34:43;;;;;;;28.75;13.55;;;11.40;77.40;;;;;;6743161;88;20224;-78
2022/03/23 21:44:44;;;;;;;28.58;14.15;;;11.30;77.30;;;;;;6739680;88;20203;-78
2022/03/23 21:54:44;;;;;;;27.75;14.20;;;11.40;77.10;;;;;;6743938;88;20207;-78
2022/03/23 22:04:45;;;;;;;24.50;12.25;;;10.80;78.40;;;;;;6745531;88;20632;-77
2022/03/23 22:14:45;;;;;;;24.12;12.35;;;10.70;78.10;;;;;;6747170;88;20235;-79
2022/03/23 22:24:46;;;;;;;26.52;13.40;;;10.50;78.60;;;;;;6749766;88;20203;-79
2022/03/23 22:34:47;;;;;;;26.12;12.77;;;10.40;78.40;;;;;;6748881;88;20232;-79
2022/03/23 22:44:48;;;;;;;24.10;11.85;;;10.10;80.20;;;;;;6748769;88;20179;-79
2022/03/23 22:54:49;;;;;;;23.67;11.80;;;9.90;81.80;;;;;;6749170;88;20185;-79
2022/03/23 23:04:49;;;;;;;25.20;11.90;;;9.90;82.10;;;;;;6745552;88;20228;-79
2022/03/23 23:14:50;;;;;;;24.40;11.87;;;9.50;84.30;;;;;;6748470;88;21041;-79
2022/03/23 23:24:51;;;;;;;24.55;12.18;;;9.20;87.00;;;;;;6749757;88;20535;-79
2022/03/23 23:34:53;;;;;;;27.77;12.77;;;9.20;87.10;;;;;;6753760;88;20202;-79
2022/03/23 23:44:54;;;;;;;26.30;12.55;;;8.90;90.70;;;;;;6750285;88;20318;-79
2022/03/23 23:54:55;;;;;;;27.35;13.20;;;8.70;91.40;;;;;;6750844;88;20263;-78
